Mao, Dominican Republic
Current Conditions -  °F | °C
As of 8:00 AM on Thursday 23 Oct 2014 (Local Time) from MDST Reporting Station
Haze Haze  
Wind Chill: 73°   Ceiling: 30000
Heat Index: 73°   Visibility: 3mi
Dew Point: 73°   Wind: 5mph
Humidity: 100%   Direction: 150°SSE
Pressure: 29.91"   Gusts: NA
Location:  19.56°N, 71.08°W
Report Text: MDST 231200Z 15004KT 5000 BR FEW016 BKN300 23/23 Q1013 BR ALL QDS
Loading
Personal Weather Stations






























Interactive Weather Map New forecast layout! Learn more

10-Day Weather Forecast

Advertisements
Track Severe Weather on mobile